createdAt,value
2023-02-11T00:00:18.900Z,111.30
2023-02-11T00:01:18.893Z,107.40
2023-02-11T00:02:18.901Z,112.60
2023-02-11T00:03:18.926Z,110.20
2023-02-11T00:04:18.868Z,113.30
2023-02-11T00:05:18.876Z,109.20
2023-02-11T00:06:18.866Z,113.20
2023-02-11T00:07:18.869Z,111.20
2023-02-11T00:08:18.883Z,112.80
2023-02-11T00:09:18.848Z,116.80
2023-02-11T00:10:18.823Z,109.30
2023-02-11T00:11:18.827Z,109.50
2023-02-11T00:12:18.849Z,112.60
2023-02-11T00:13:18.836Z,110.10
2023-02-11T00:14:18.851Z,115.40
2023-02-11T00:15:18.821Z,111.00
2023-02-11T00:16:19.072Z,109.70
2023-02-11T00:17:18.782Z,108.90
2023-02-11T00:18:18.827Z,112.30
2023-02-11T00:19:18.802Z,113.90
2023-02-11T00:20:18.775Z,122.30
2023-02-11T00:21:18.808Z,113.30
2023-02-11T00:22:18.806Z,117.70
2023-02-11T00:23:18.740Z,116.80
2023-02-11T00:24:18.802Z,112.90
2023-02-11T00:25:18.770Z,117.90
2023-02-11T00:26:18.765Z,117.70
2023-02-11T00:27:18.734Z,121.80
2023-02-11T00:28:18.769Z,118.20
2023-02-11T00:29:18.700Z,122.60
2023-02-11T00:30:18.771Z,110.70
2023-02-11T00:31:18.854Z,115.20
2023-02-11T00:32:18.745Z,123.80
2023-02-11T00:33:18.677Z,122.20
2023-02-11T00:34:18.670Z,123.60
2023-02-11T00:35:18.734Z,123.40
2023-02-11T00:36:18.654Z,121.30
2023-02-11T00:37:18.689Z,132.90
2023-02-11T00:38:18.654Z,123.50
2023-02-11T00:39:18.648Z,123.50
2023-02-11T00:40:18.675Z,117.70
2023-02-11T00:41:18.691Z,118.90
2023-02-11T00:42:18.647Z,120.10
2023-02-11T00:43:18.633Z,116.10
2023-02-11T00:44:18.603Z,113.40
2023-02-11T00:45:18.625Z,116.00
2023-02-11T00:46:18.696Z,122.00
2023-02-11T00:47:18.617Z,118.10
2023-02-11T00:48:18.606Z,117.60
2023-02-11T00:49:18.574Z,127.90
2023-02-11T00:50:18.584Z,130.60
2023-02-11T00:51:18.590Z,127.50
2023-02-11T00:52:18.620Z,133.90
2023-02-11T00:53:18.563Z,130.00
2023-02-11T00:54:18.598Z,130.40
2023-02-11T00:55:18.543Z,119.90
2023-02-11T00:56:18.595Z,128.00
2023-02-11T00:57:18.529Z,128.40
2023-02-11T00:58:18.523Z,133.30
2023-02-11T00:59:18.534Z,140.10
2023-02-11T01:00:18.504Z,123.20
2023-02-11T01:01:18.651Z,127.60
2023-02-11T01:02:18.539Z,130.20
2023-02-11T01:03:18.504Z,125.70
2023-02-11T01:04:18.503Z,129.60
2023-02-11T01:05:18.527Z,122.00
2023-02-11T01:06:18.529Z,131.70
2023-02-11T01:07:18.470Z,127.20
2023-02-11T01:08:18.474Z,121.10
2023-02-11T01:09:18.470Z,129.70
2023-02-11T01:10:18.480Z,123.00
2023-02-11T01:11:18.478Z,122.20
2023-02-11T01:12:18.473Z,123.90
2023-02-11T01:13:18.422Z,118.20
2023-02-11T01:14:18.462Z,120.50
2023-02-11T01:15:18.438Z,125.50
2023-02-11T01:16:18.637Z,121.70
2023-02-11T01:17:18.424Z,117.30
2023-02-11T01:18:18.419Z,125.90
2023-02-11T01:19:18.412Z,119.90
2023-02-11T01:20:18.407Z,125.90
2023-02-11T01:21:18.417Z,126.70
2023-02-11T01:22:18.363Z,115.00
2023-02-11T01:23:18.376Z,120.40
2023-02-11T01:24:18.371Z,131.00
2023-02-11T01:25:18.359Z,130.00
2023-02-11T01:26:18.386Z,126.60
2023-02-11T01:27:18.349Z,128.80
2023-02-11T01:28:18.435Z,129.80
2023-02-11T01:29:18.355Z,129.70
2023-02-11T01:30:18.390Z,128.60
2023-02-11T01:31:18.457Z,118.70
2023-02-11T01:32:18.387Z,127.20
2023-02-11T01:33:18.342Z,128.10
2023-02-11T01:34:18.348Z,129.50
2023-02-11T01:35:18.329Z,119.20
2023-02-11T01:36:18.287Z,118.80
2023-02-11T01:37:18.272Z,126.20
2023-02-11T01:38:18.308Z,124.00
2023-02-11T01:39:18.281Z,121.00
2023-02-11T01:40:18.251Z,115.90
2023-02-11T01:41:18.263Z,124.40
2023-02-11T01:42:18.252Z,122.20
2023-02-11T01:43:18.289Z,120.40
2023-02-11T01:44:18.322Z,121.20
2023-02-11T01:45:18.243Z,118.70
2023-02-11T01:46:18.254Z,122.20
2023-02-11T01:47:18.235Z,126.90
2023-02-11T01:48:18.219Z,121.80
2023-02-11T01:49:18.315Z,120.00
2023-02-11T01:50:18.240Z,121.10
2023-02-11T01:51:18.254Z,121.60
2023-02-11T01:52:18.221Z,126.20
2023-02-11T01:53:18.199Z,121.10
2023-02-11T01:54:18.194Z,114.60
2023-02-11T01:55:18.205Z,125.80
2023-02-11T01:56:18.181Z,119.30
2023-02-11T01:57:18.168Z,116.10
2023-02-11T01:58:18.166Z,122.30
2023-02-11T01:59:18.191Z,119.70
2023-02-11T02:00:18.176Z,123.40
2023-02-11T02:01:18.193Z,115.90
2023-02-11T02:02:18.207Z,113.40
2023-02-11T02:03:18.173Z,108.60
2023-02-11T02:04:18.147Z,116.60
2023-02-11T02:05:18.131Z,111.80
2023-02-11T02:06:18.137Z,119.40
2023-02-11T02:07:18.112Z,120.20
2023-02-11T02:08:18.179Z,105.90
2023-02-11T02:09:18.118Z,111.50
2023-02-11T02:10:18.095Z,112.70
2023-02-11T02:11:18.137Z,113.50
2023-02-11T02:12:18.084Z,115.20
2023-02-11T02:13:18.056Z,114.30
2023-02-11T02:14:18.091Z,108.70
2023-02-11T02:15:18.101Z,111.30
2023-02-11T02:16:18.120Z,114.00
2023-02-11T02:17:18.066Z,117.80
2023-02-11T02:18:18.056Z,116.10
2023-02-11T02:19:18.088Z,118.00
2023-02-11T02:20:18.028Z,112.20
2023-02-11T02:21:18.019Z,116.70
2023-02-11T02:22:18.028Z,116.60
2023-02-11T02:23:18.042Z,109.00
2023-02-11T02:24:18.007Z,115.60
2023-02-11T02:25:18.018Z,113.30
2023-02-11T02:26:17.977Z,106.60
2023-02-11T02:27:18.015Z,109.00
2023-02-11T02:28:18.054Z,113.50
2023-02-11T02:29:17.976Z,107.10
2023-02-11T02:30:18.019Z,106.90
2023-02-11T02:31:17.987Z,113.90
2023-02-11T02:32:17.985Z,117.20
2023-02-11T02:33:23.616Z,113.50
2023-02-11T02:34:19.904Z,116.10
2023-02-11T02:35:17.943Z,111.90
2023-02-11T02:36:17.984Z,117.50
2023-02-11T02:37:17.954Z,111.80
2023-02-11T02:38:17.893Z,113.50
2023-02-11T02:39:17.880Z,118.40
2023-02-11T02:40:17.867Z,115.60
2023-02-11T02:41:17.886Z,116.80
2023-02-11T02:42:17.907Z,111.80
2023-02-11T02:43:17.887Z,112.70
2023-02-11T02:44:17.850Z,115.80
2023-02-11T02:45:17.886Z,118.10
2023-02-11T02:46:17.884Z,112.70
2023-02-11T02:47:17.849Z,115.70
2023-02-11T02:48:17.881Z,118.10
2023-02-11T02:49:17.848Z,115.90
2023-02-11T02:50:17.850Z,116.10
2023-02-11T02:51:17.883Z,115.00
2023-02-11T02:52:17.801Z,117.90
2023-02-11T02:53:17.845Z,113.90
2023-02-11T02:54:17.854Z,118.00
2023-02-11T02:55:17.780Z,114.10
2023-02-11T02:56:17.796Z,112.80
2023-02-11T02:57:17.795Z,114.60
2023-02-11T02:58:17.778Z,108.60
2023-02-11T02:59:17.793Z,108.80
2023-02-11T03:00:17.817Z,112.90
2023-02-11T03:01:17.760Z,107.10
2023-02-11T03:02:17.744Z,113.20
2023-02-11T03:03:17.741Z,120.60
2023-02-11T03:04:17.754Z,111.30
2023-02-11T03:05:17.761Z,118.30
2023-02-11T03:06:17.764Z,116.50
2023-02-11T03:07:17.697Z,115.00
2023-02-11T03:08:17.716Z,107.00
2023-02-11T03:09:17.704Z,111.80
2023-02-11T03:10:17.736Z,108.10
2023-02-11T03:11:17.691Z,118.00
2023-02-11T03:12:17.694Z,114.20
2023-02-11T03:13:17.698Z,111.40
2023-02-11T03:14:17.689Z,113.10
2023-02-11T03:15:17.702Z,116.10
2023-02-11T03:16:17.691Z,117.00
2023-02-11T03:17:18.652Z,106.40
2023-02-11T03:18:17.651Z,111.70
2023-02-11T03:19:17.640Z,113.00
2023-02-11T03:20:17.632Z,114.20
2023-02-11T03:21:17.689Z,109.80
2023-02-11T03:22:17.620Z,127.00
2023-02-11T03:23:17.642Z,108.80
2023-02-11T03:24:17.588Z,115.20
2023-02-11T03:25:17.627Z,105.30
2023-02-11T03:26:17.603Z,109.00
2023-02-11T03:27:17.591Z,111.30
2023-02-11T03:28:17.663Z,114.60
2023-02-11T03:29:17.570Z,111.50
2023-02-11T03:30:17.625Z,103.90
2023-02-11T03:31:17.698Z,110.90
2023-02-11T03:32:17.688Z,113.50
2023-02-11T03:33:17.534Z,105.80
2023-02-11T03:34:17.568Z,103.00
2023-02-11T03:35:17.579Z,117.30
2023-02-11T03:36:17.533Z,112.90
2023-02-11T03:37:17.542Z,107.90
2023-02-11T03:38:17.531Z,112.40
2023-02-11T03:39:17.518Z,111.30
2023-02-11T03:40:17.504Z,111.70
2023-02-11T03:41:17.527Z,106.90
2023-02-11T03:42:17.536Z,112.60
2023-02-11T03:43:17.558Z,114.50
2023-02-11T03:44:17.497Z,111.40
2023-02-11T03:45:17.503Z,110.40
2023-02-11T03:46:17.555Z,117.10
2023-02-11T03:47:17.480Z,112.70
2023-02-11T03:48:17.482Z,112.20
2023-02-11T03:49:17.465Z,108.60
2023-02-11T03:50:17.477Z,107.20
2023-02-11T03:51:17.456Z,117.00
2023-02-11T03:52:17.455Z,118.60
2023-02-11T03:53:17.478Z,102.90
2023-02-11T03:54:17.451Z,113.20
2023-02-11T03:55:17.403Z,115.40
2023-02-11T03:56:17.419Z,114.90
2023-02-11T03:57:17.405Z,112.00
2023-02-11T03:58:17.414Z,118.80
2023-02-11T03:59:17.394Z,107.60
2023-02-11T04:00:17.406Z,113.90
2023-02-11T04:01:17.397Z,110.10
2023-02-11T04:02:17.382Z,116.00
2023-02-11T04:03:17.498Z,116.30
2023-02-11T04:04:17.518Z,111.10
2023-02-11T04:05:17.389Z,112.40
2023-02-11T04:06:17.357Z,109.20
2023-02-11T04:07:17.332Z,113.90
2023-02-11T04:08:17.348Z,117.70
2023-02-11T04:09:17.344Z,112.90
2023-02-11T04:10:17.317Z,107.70
2023-02-11T04:11:17.319Z,113.40
2023-02-11T04:12:17.296Z,118.80
2023-02-11T04:13:17.306Z,118.10
2023-02-11T04:14:17.355Z,109.30
2023-02-11T04:15:17.305Z,116.70
2023-02-11T04:16:17.316Z,112.90
2023-02-11T04:17:17.258Z,112.00
2023-02-11T04:18:17.320Z,107.70
2023-02-11T04:19:17.291Z,115.10
2023-02-11T04:20:17.545Z,108.00
2023-02-11T04:21:17.306Z,114.50
2023-02-11T04:22:17.304Z,104.60
2023-02-11T04:23:17.275Z,105.40
2023-02-11T04:24:17.247Z,109.10
2023-02-11T04:25:17.289Z,114.20
2023-02-11T04:26:17.247Z,112.00
2023-02-11T04:27:17.218Z,116.60
2023-02-11T04:28:17.298Z,106.10
2023-02-11T04:29:18.198Z,115.40
2023-02-11T04:30:17.248Z,105.40
2023-02-11T04:31:17.243Z,107.60
2023-02-11T04:32:17.167Z,107.00
2023-02-11T04:33:17.270Z,103.10
2023-02-11T04:34:17.200Z,109.20
2023-02-11T04:35:17.212Z,110.30
2023-02-11T04:36:17.310Z,111.30
2023-02-11T04:37:17.148Z,102.20
2023-02-11T04:38:17.165Z,111.60
2023-02-11T04:39:17.098Z,110.70
2023-02-11T04:40:17.159Z,106.70
2023-02-11T04:41:17.107Z,105.30
2023-02-11T04:42:18.114Z,109.80
2023-02-11T04:43:17.146Z,111.30
2023-02-11T04:44:17.113Z,102.00
2023-02-11T04:45:17.102Z,103.80
2023-02-11T04:46:17.131Z,100.30
2023-02-11T04:47:17.075Z,117.50
2023-02-11T04:48:17.151Z,101.00
2023-02-11T04:49:17.107Z,108.20
2023-02-11T04:50:17.074Z,108.80
2023-02-11T04:51:17.072Z,105.40
2023-02-11T04:52:17.045Z,100.40
2023-02-11T04:53:17.066Z,105.00
2023-02-11T04:54:17.116Z,105.50
2023-02-11T04:55:17.033Z,104.50
2023-02-11T04:56:17.075Z,109.60
2023-02-11T04:57:17.025Z,106.60
2023-02-11T04:58:17.026Z,115.70
2023-02-11T04:59:18.477Z,105.00
2023-02-11T05:00:17.065Z,108.50
2023-02-11T05:01:17.213Z,104.30
2023-02-11T05:02:16.979Z,100.40
2023-02-11T05:03:16.986Z,107.90
2023-02-11T05:04:17.154Z,107.60
2023-02-11T05:05:16.992Z,106.50
2023-02-11T05:06:16.978Z,107.20
2023-02-11T05:07:16.968Z,104.70
2023-02-11T05:08:16.975Z,103.50
2023-02-11T05:09:16.977Z,103.50
2023-02-11T05:10:16.946Z,105.70
2023-02-11T05:11:16.939Z,103.90
2023-02-11T05:12:16.927Z,105.70
2023-02-11T05:13:16.951Z,99.30
2023-02-11T05:14:16.916Z,99.30
2023-02-11T05:15:16.928Z,108.70
2023-02-11T05:16:16.973Z,107.20
2023-02-11T05:17:16.897Z,109.60
2023-02-11T05:18:16.905Z,101.60
2023-02-11T05:19:16.901Z,103.20
2023-02-11T05:20:16.862Z,101.70
2023-02-11T05:21:16.888Z,103.10
2023-02-11T05:22:16.876Z,107.80
2023-02-11T05:23:16.860Z,108.90
2023-02-11T05:24:16.882Z,101.10
2023-02-11T05:25:16.843Z,106.10
2023-02-11T05:26:16.907Z,104.60
2023-02-11T05:27:16.843Z,110.10
2023-02-11T05:28:16.844Z,108.50
2023-02-11T05:29:16.831Z,107.90
2023-02-11T05:30:16.816Z,107.90
2023-02-11T05:31:16.938Z,99.10
2023-02-11T05:32:16.837Z,106.20
2023-02-11T05:33:16.797Z,97.00
2023-02-11T05:34:16.804Z,102.00
2023-02-11T05:35:16.793Z,111.30
2023-02-11T05:36:16.808Z,104.80
2023-02-11T05:37:16.842Z,104.90
2023-02-11T05:38:16.762Z,98.30
2023-02-11T05:39:16.748Z,100.60
2023-02-11T05:40:16.751Z,109.30
2023-02-11T05:41:16.789Z,106.20
2023-02-11T05:42:16.800Z,102.30
2023-02-11T05:43:16.749Z,101.20
2023-02-11T05:44:16.737Z,111.30
2023-02-11T05:45:16.742Z,107.90
2023-02-11T05:46:16.829Z,105.70
2023-02-11T05:47:16.774Z,105.70
2023-02-11T05:48:16.688Z,104.50
2023-02-11T05:49:16.717Z,105.90
2023-02-11T05:50:16.677Z,100.90
2023-02-11T05:51:16.671Z,107.00
2023-02-11T05:52:16.705Z,101.80
2023-02-11T05:53:16.658Z,105.60
2023-02-11T05:54:16.702Z,100.70
2023-02-11T05:55:16.651Z,105.40
2023-02-11T05:56:16.676Z,98.70
2023-02-11T05:57:16.662Z,101.80
2023-02-11T05:58:16.646Z,104.80
2023-02-11T05:59:16.645Z,103.40
2023-02-11T06:00:16.661Z,106.70
2023-02-11T06:01:16.599Z,108.70
2023-02-11T06:02:16.705Z,103.50
2023-02-11T06:03:16.696Z,102.10
2023-02-11T06:04:16.626Z,101.80
2023-02-11T06:05:16.685Z,100.90
2023-02-11T06:06:16.599Z,110.00
2023-02-11T06:07:16.620Z,103.90
2023-02-11T06:08:16.586Z,104.30
2023-02-11T06:09:16.597Z,98.30
2023-02-11T06:10:17.559Z,97.90
2023-02-11T06:11:16.564Z,103.20
2023-02-11T06:12:16.584Z,106.40
2023-02-11T06:13:16.533Z,103.20
2023-02-11T06:14:16.580Z,104.70
2023-02-11T06:15:16.568Z,105.80
2023-02-11T06:16:16.588Z,102.70
2023-02-11T06:17:16.517Z,102.80
2023-02-11T06:18:16.542Z,105.60
2023-02-11T06:19:16.562Z,102.00
2023-02-11T06:20:16.505Z,105.70
2023-02-11T06:21:16.505Z,97.70
2023-02-11T06:22:16.464Z,101.10
2023-02-11T06:23:16.499Z,104.70
2023-02-11T06:24:28.571Z,107.10
2023-02-11T06:25:18.452Z,99.10
2023-02-11T06:26:16.510Z,107.30
2023-02-11T06:27:16.482Z,103.50
2023-02-11T06:28:20.996Z,104.20
2023-02-11T06:29:18.955Z,101.50
2023-02-11T06:30:17.211Z,103.70
2023-02-11T06:31:19.882Z,101.70
2023-02-11T06:32:36.907Z,106.60
2023-02-11T06:33:18.624Z,102.90
2023-02-11T06:34:16.435Z,99.20
2023-02-11T06:35:16.432Z,109.20
2023-02-11T06:36:18.711Z,105.20
2023-02-11T06:37:17.389Z,101.80
2023-02-11T06:38:16.386Z,99.90
2023-02-11T06:39:16.382Z,101.00
2023-02-11T06:40:16.385Z,101.00
2023-02-11T06:41:16.503Z,106.10
2023-02-11T06:42:16.337Z,111.30
2023-02-11T06:43:16.361Z,105.90
2023-02-11T06:44:16.332Z,105.00
2023-02-11T06:45:16.341Z,104.80
2023-02-11T06:46:16.354Z,106.60
2023-02-11T06:47:16.340Z,102.70
2023-02-11T06:48:16.358Z,106.00
2023-02-11T06:49:16.307Z,103.60
2023-02-11T06:50:16.302Z,106.50
2023-02-11T06:51:16.275Z,99.00
2023-02-11T06:52:16.290Z,106.00
2023-02-11T06:53:16.291Z,101.20
2023-02-11T06:54:16.285Z,111.10
2023-02-11T06:55:16.302Z,104.90
2023-02-11T06:56:16.265Z,105.90
2023-02-11T06:57:16.269Z,100.80
2023-02-11T06:58:16.260Z,100.40
2023-02-11T06:59:16.297Z,109.80
2023-02-11T07:00:16.262Z,106.80
2023-02-11T07:01:16.254Z,95.00
2023-02-11T07:02:17.516Z,101.30
2023-02-11T07:03:16.306Z,102.00
2023-02-11T07:04:16.254Z,99.50
2023-02-11T07:05:16.225Z,102.80
2023-02-11T07:06:16.199Z,105.60
2023-02-11T07:07:16.249Z,107.00
2023-02-11T07:08:16.197Z,104.60
2023-02-11T07:09:16.230Z,102.00
2023-02-11T07:10:16.165Z,100.90
2023-02-11T07:11:16.202Z,98.10
2023-02-11T07:12:16.185Z,98.80
2023-02-11T07:13:16.180Z,97.40
2023-02-11T07:14:16.172Z,94.00
2023-02-11T07:15:16.144Z,101.70
2023-02-11T07:16:16.155Z,96.30
2023-02-11T07:17:16.131Z,99.40
2023-02-11T07:18:16.180Z,101.40
2023-02-11T07:19:16.197Z,102.50
2023-02-11T07:20:16.106Z,103.40
2023-02-11T07:21:16.095Z,101.60
2023-02-11T07:22:16.090Z,102.90
2023-02-11T07:23:16.158Z,101.20
2023-02-11T07:24:16.068Z,102.50
2023-02-11T07:25:16.085Z,97.80
2023-02-11T07:26:17.047Z,98.40
2023-02-11T07:27:16.086Z,102.90
2023-02-11T07:28:16.172Z,103.70
2023-02-11T07:29:16.076Z,102.30
2023-02-11T07:30:16.057Z,101.00
2023-02-11T07:31:16.126Z,104.40
2023-02-11T07:32:16.129Z,107.30
2023-02-11T07:33:16.060Z,96.80
2023-02-11T07:34:16.055Z,102.20
2023-02-11T07:35:16.022Z,103.50
2023-02-11T07:36:16.003Z,104.40
2023-02-11T07:37:21.026Z,99.60
2023-02-11T07:38:18.402Z,98.70
2023-02-11T07:39:17.212Z,105.50
2023-02-11T07:40:16.840Z,101.20
2023-02-11T07:41:15.994Z,96.00
2023-02-11T07:42:15.989Z,109.90
2023-02-11T07:43:16.039Z,93.80
2023-02-11T07:44:16.043Z,111.90
2023-02-11T07:45:15.996Z,98.90
2023-02-11T07:46:15.976Z,97.30
2023-02-11T07:47:15.934Z,96.40
2023-02-11T07:48:15.925Z,94.70
2023-02-11T07:49:15.954Z,96.70
2023-02-11T07:50:15.935Z,102.40
2023-02-11T07:51:15.916Z,95.80
2023-02-11T07:52:15.891Z,102.50
2023-02-11T07:53:15.891Z,98.10
2023-02-11T07:54:15.916Z,106.40
2023-02-11T07:55:15.915Z,107.50
2023-02-11T07:56:15.861Z,103.30
2023-02-11T07:57:16.893Z,98.70
2023-02-11T07:58:15.853Z,100.20
2023-02-11T07:59:15.867Z,100.60
2023-02-11T08:00:15.842Z,101.20
2023-02-11T08:01:15.895Z,99.60
2023-02-11T08:02:15.873Z,92.50
2023-02-11T08:03:15.861Z,97.40
2023-02-11T08:04:15.807Z,103.80
2023-02-11T08:05:15.833Z,100.10
2023-02-11T08:06:15.842Z,101.60
2023-02-11T08:07:15.842Z,99.50
2023-02-11T08:08:15.805Z,98.20
2023-02-11T08:09:15.841Z,93.60
2023-02-11T08:10:15.787Z,100.90
2023-02-11T08:11:15.778Z,95.10
2023-02-11T08:12:15.932Z,94.70
2023-02-11T08:13:15.778Z,92.50
2023-02-11T08:14:15.746Z,95.60
2023-02-11T08:15:15.757Z,109.30
2023-02-11T08:16:15.786Z,96.00
2023-02-11T08:17:15.758Z,102.00
2023-02-11T08:18:15.777Z,103.20
2023-02-11T08:19:15.903Z,97.30
2023-02-11T08:20:15.719Z,91.20
2023-02-11T08:21:15.733Z,97.30
2023-02-11T08:22:15.725Z,91.00
2023-02-11T08:23:15.726Z,97.30
2023-02-11T08:24:15.788Z,94.30
2023-02-11T08:25:15.699Z,105.50
2023-02-11T08:26:15.684Z,85.20
2023-02-11T08:27:15.678Z,95.40
2023-02-11T08:28:15.738Z,91.70
2023-02-11T08:29:15.801Z,92.50
2023-02-11T08:30:15.810Z,99.30
2023-02-11T08:31:15.736Z,99.10
2023-02-11T08:32:15.747Z,95.50
2023-02-11T08:33:15.662Z,95.60
2023-02-11T08:34:15.624Z,93.50
2023-02-11T08:35:15.691Z,88.80
2023-02-11T08:36:15.617Z,98.30
2023-02-11T08:37:15.638Z,96.50
2023-02-11T08:38:15.597Z,95.10
2023-02-11T08:39:19.791Z,96.80
2023-02-11T08:40:16.745Z,88.60
2023-02-11T08:41:15.609Z,92.20
2023-02-11T08:42:15.621Z,97.00
2023-02-11T08:43:15.585Z,95.30
2023-02-11T08:44:15.610Z,98.50
2023-02-11T08:45:15.571Z,94.10
2023-02-11T08:46:16.641Z,98.70
2023-02-11T08:47:15.566Z,99.40
2023-02-11T08:48:15.551Z,99.00
2023-02-11T08:49:15.546Z,94.60
2023-02-11T08:50:15.569Z,96.10
2023-02-11T08:51:15.568Z,98.70
2023-02-11T08:52:15.518Z,100.20
2023-02-11T08:53:15.551Z,95.80
2023-02-11T08:54:15.526Z,98.50
2023-02-11T08:55:16.509Z,91.20
2023-02-11T08:56:15.593Z,99.40
2023-02-11T08:57:15.500Z,98.10
2023-02-11T08:58:18.117Z,102.00
2023-02-11T08:59:15.554Z,99.00
2023-02-11T09:00:15.488Z,90.70
2023-02-11T09:01:15.566Z,93.40
2023-02-11T09:02:15.487Z,98.80
2023-02-11T09:03:15.455Z,90.30
2023-02-11T09:04:15.439Z,93.00
2023-02-11T09:05:15.486Z,88.90
2023-02-11T09:06:15.552Z,92.90
2023-02-11T09:07:15.462Z,97.00
2023-02-11T09:08:15.440Z,94.10
2023-02-11T09:09:15.423Z,101.20
2023-02-11T09:10:15.515Z,97.20
2023-02-11T09:11:15.582Z,103.60
2023-02-11T09:12:15.407Z,102.20
2023-02-11T09:13:15.418Z,105.30
2023-02-11T09:14:15.414Z,108.00
2023-02-11T09:15:15.384Z,96.20
2023-02-11T09:16:15.531Z,99.40
2023-02-11T09:17:15.394Z,92.30
2023-02-11T09:18:15.353Z,95.00
2023-02-11T09:19:15.353Z,96.50
2023-02-11T09:20:15.356Z,92.30
2023-02-11T09:21:15.365Z,98.30
2023-02-11T09:22:15.362Z,101.70
2023-02-11T09:23:17.625Z,100.70
2023-02-11T09:24:15.324Z,103.60
2023-02-11T09:25:15.349Z,95.60
2023-02-11T09:26:15.297Z,93.10
2023-02-11T09:27:15.318Z,86.40
2023-02-11T09:28:15.471Z,93.00
2023-02-11T09:29:15.297Z,93.80
2023-02-11T09:30:15.286Z,101.10
2023-02-11T09:31:15.457Z,98.10
2023-02-11T09:32:15.427Z,92.20
2023-02-11T09:33:15.308Z,90.60
2023-02-11T09:34:15.261Z,95.70
2023-02-11T09:35:15.276Z,95.90
2023-02-11T09:36:15.274Z,99.80
2023-02-11T09:37:15.233Z,95.80
2023-02-11T09:38:15.232Z,93.20
2023-02-11T09:39:15.265Z,100.10
2023-02-11T09:40:15.223Z,88.70
2023-02-11T09:41:15.214Z,97.30
2023-02-11T09:42:15.208Z,100.30
2023-02-11T09:43:15.213Z,93.70
2023-02-11T09:44:15.225Z,100.20
2023-02-11T09:45:15.186Z,99.50
2023-02-11T09:46:15.229Z,103.30
2023-02-11T09:47:15.166Z,93.80
2023-02-11T09:48:15.171Z,91.40
2023-02-11T09:49:15.185Z,97.80
2023-02-11T09:50:15.176Z,94.10
2023-02-11T09:51:15.136Z,98.60
2023-02-11T09:52:15.156Z,99.90
2023-02-11T09:53:15.198Z,96.40
2023-02-11T09:54:15.144Z,91.90
2023-02-11T09:55:15.192Z,94.90
2023-02-11T09:56:15.135Z,93.60
2023-02-11T09:57:27.975Z,99.20
2023-02-11T09:58:17.108Z,100.20
2023-02-11T09:59:15.100Z,97.40
2023-02-11T10:00:15.252Z,98.90
2023-02-11T10:01:15.141Z,98.60
2023-02-11T10:02:15.100Z,98.00
2023-02-11T10:03:15.090Z,94.20
2023-02-11T10:04:15.208Z,97.80
2023-02-11T10:05:15.072Z,99.80
2023-02-11T10:06:15.152Z,96.50
2023-02-11T10:07:15.089Z,104.20
2023-02-11T10:08:16.932Z,91.30
2023-02-11T10:09:16.086Z,100.00
2023-02-11T10:10:15.073Z,101.90
2023-02-11T10:11:29.529Z,103.80
2023-02-11T10:12:17.081Z,99.00
2023-02-11T10:13:15.027Z,96.80
2023-02-11T10:14:15.143Z,105.70
2023-02-11T10:15:15.043Z,103.40
2023-02-11T10:16:15.162Z,105.10
2023-02-11T10:17:15.011Z,100.40
2023-02-11T10:18:15.022Z,109.00
2023-02-11T10:19:14.996Z,99.50
2023-02-11T10:20:16.933Z,100.10
2023-02-11T10:21:15.981Z,102.30
2023-02-11T10:22:14.983Z,97.60
2023-02-11T10:23:14.960Z,111.00
2023-02-11T10:24:14.978Z,96.10
2023-02-11T10:25:15.002Z,98.10
2023-02-11T10:26:14.938Z,91.90
2023-02-11T10:27:15.159Z,110.60
2023-02-11T10:28:14.961Z,97.20
2023-02-11T10:29:14.988Z,102.80
2023-02-11T10:30:15.077Z,96.60
2023-02-11T10:31:15.022Z,102.80
2023-02-11T10:32:15.013Z,95.40
2023-02-11T10:33:14.919Z,101.00
2023-02-11T10:34:14.887Z,98.50
2023-02-11T10:35:15.898Z,94.60
2023-02-11T10:36:14.935Z,95.10
2023-02-11T10:37:14.893Z,99.90
2023-02-11T10:38:14.875Z,105.50
2023-02-11T10:39:14.879Z,97.90
2023-02-11T10:40:14.880Z,97.50
2023-02-11T10:41:14.891Z,99.10
2023-02-11T10:42:14.855Z,95.40
2023-02-11T10:43:14.878Z,94.90
2023-02-11T10:44:14.860Z,93.50
2023-02-11T10:45:14.884Z,94.20
2023-02-11T10:46:14.930Z,102.00
2023-02-11T10:47:14.840Z,84.90
2023-02-11T10:48:16.440Z,88.70
2023-02-11T10:49:15.794Z,97.20
2023-02-11T10:50:14.801Z,101.20
2023-02-11T10:51:14.827Z,92.60
2023-02-11T10:52:14.787Z,84.90
2023-02-11T10:53:14.893Z,85.20
2023-02-11T10:54:14.784Z,82.80
2023-02-11T10:55:14.769Z,86.60
2023-02-11T10:56:14.801Z,86.60
2023-02-11T10:57:14.780Z,84.40
2023-02-11T10:58:14.763Z,81.90
2023-02-11T10:59:14.876Z,84.30
2023-02-11T11:00:14.751Z,77.10
2023-02-11T11:01:24.408Z,81.70
2023-02-11T11:02:16.732Z,80.60
2023-02-11T11:03:14.792Z,84.80
2023-02-11T11:04:14.809Z,81.50
2023-02-11T11:05:14.703Z,85.60
2023-02-11T11:06:14.730Z,81.70
2023-02-11T11:07:14.715Z,83.30
2023-02-11T11:08:14.691Z,84.50
2023-02-11T11:09:14.708Z,85.60
2023-02-11T11:10:14.690Z,78.10
2023-02-11T11:11:14.767Z,80.10
2023-02-11T11:12:14.867Z,85.20
2023-02-11T11:13:14.695Z,88.90
2023-02-11T11:14:14.736Z,88.10
2023-02-11T11:15:14.686Z,74.50
2023-02-11T11:16:14.821Z,77.10
2023-02-11T11:17:14.674Z,77.10
2023-02-11T11:18:21.281Z,75.10
2023-02-11T11:19:16.743Z,78.60
2023-02-11T11:20:14.690Z,71.40
2023-02-11T11:21:14.654Z,75.70
2023-02-11T11:22:14.675Z,76.30
2023-02-11T11:23:14.615Z,74.90
2023-02-11T11:24:14.616Z,82.00
2023-02-11T11:25:17.825Z,83.30
2023-02-11T11:26:15.632Z,82.50
2023-02-11T11:27:14.623Z,87.30
2023-02-11T11:28:14.788Z,75.90
2023-02-11T11:29:14.630Z,75.70
2023-02-11T11:30:14.648Z,78.20
2023-02-11T11:31:14.714Z,73.90
2023-02-11T11:32:14.604Z,82.90
2023-02-11T11:33:14.589Z,76.30
2023-02-11T11:34:14.599Z,71.80
2023-02-11T11:35:14.581Z,77.50
2023-02-11T11:36:14.559Z,74.00
2023-02-11T11:37:14.787Z,83.50
2023-02-11T11:38:14.573Z,72.40
2023-02-11T11:39:14.529Z,74.70
2023-02-11T11:40:14.526Z,75.40
2023-02-11T11:41:14.534Z,80.10
2023-02-11T11:42:14.580Z,73.90
2023-02-11T11:43:14.768Z,75.50
2023-02-11T11:44:14.551Z,67.40
2023-02-11T11:45:14.597Z,76.20
2023-02-11T11:46:14.536Z,74.60
2023-02-11T11:47:14.522Z,71.40
2023-02-11T11:48:14.561Z,71.60
2023-02-11T11:49:14.546Z,74.40
2023-02-11T11:50:14.493Z,74.30
2023-02-11T11:51:14.513Z,73.20
2023-02-11T11:52:14.468Z,72.20
2023-02-11T11:53:14.496Z,68.50
2023-02-11T11:54:14.485Z,66.10
2023-02-11T11:55:14.468Z,73.00
2023-02-11T11:56:14.444Z,72.30
2023-02-11T11:57:14.439Z,70.20
2023-02-11T11:58:14.517Z,68.60
2023-02-11T11:59:14.466Z,67.30
2023-02-11T12:00:14.600Z,70.70
2023-02-11T12:01:14.534Z,67.50
2023-02-11T12:02:14.883Z,69.60
2023-02-11T12:03:14.526Z,61.00
2023-02-11T12:04:14.429Z,69.50
2023-02-11T12:05:14.425Z,60.30
2023-02-11T12:06:14.420Z,66.10
2023-02-11T12:07:14.403Z,56.50
2023-02-11T12:08:14.404Z,62.90
2023-02-11T12:09:14.410Z,58.80
2023-02-11T12:10:14.442Z,60.60
2023-02-11T12:11:14.434Z,58.30
2023-02-11T12:12:14.467Z,65.50
2023-02-11T12:13:14.363Z,59.60
2023-02-11T12:14:14.409Z,60.70
2023-02-11T12:15:14.357Z,60.30
2023-02-11T12:16:14.458Z,60.30
2023-02-11T12:17:14.363Z,50.30
2023-02-11T12:18:14.340Z,58.70
2023-02-11T12:19:14.372Z,54.90
2023-02-11T12:20:14.436Z,55.60
2023-02-11T12:21:14.315Z,58.50
2023-02-11T12:22:14.320Z,57.30
2023-02-11T12:23:14.311Z,55.20
2023-02-11T12:24:17.196Z,55.20
2023-02-11T12:25:15.295Z,59.10
2023-02-11T12:26:14.304Z,55.00
2023-02-11T12:27:14.339Z,55.50
2023-02-11T12:28:14.350Z,64.40
2023-02-11T12:29:14.281Z,56.40
2023-02-11T12:30:14.364Z,50.90
2023-02-11T12:31:14.377Z,63.50
2023-02-11T12:32:14.425Z,60.50
2023-02-11T12:33:14.267Z,54.60
2023-02-11T12:34:14.264Z,58.80
2023-02-11T12:35:14.273Z,58.70
2023-02-11T12:36:14.252Z,58.10